Terminal Aerodrome Forecast
Issued by NWS

Home | Current Version | Previous Version | Text Only | Print | Product List | Glossary On
Versions: 1 2 3 4 5 6 7 8 9 10 11 12 13 14 15 16 17 18
663
FTUS46 KSTO 161709 AAA
TAFSMF
TAF AMD
KSMF 161709Z 1617/1712 00000KT 1/4SM FG VV000
     FM161800 VRB04KT 4SM BR BKN015
     FM162100 VRB05KT P6SM SCT250
     FM170800 VRB02KT 1 1/2SM BR SCT012=

USA.gov is the U.S. government's official web portal to all federal, state and local government web resources and services.